Time;durP1;ratioP1;P1;durP2;ratioP2;P2;SDS_P1;SDS_P2;PMS_P1;PMS_P2;Temp;Humidity;BMP_temperature;BMP_pressure;BME280_temperature;BME280_humidity;BME280_pressure;Samples;Min_cycle;Max_cycle;Signal;HPM_P1;HPM_P2
2021/12/29 00:00:31;;;;;;;14.87;13.27;;;9.30;99.90;;;;;;5025335;28;20442;-78
2021/12/29 00:03:00;;;;;;;13.83;12.30;;;9.30;99.90;;;;;;5031246;28;20481;-80
2021/12/29 00:05:28;;;;;;;15.87;14.27;;;9.30;99.90;;;;;;5024075;28;20454;-76
2021/12/29 00:07:55;;;;;;;19.13;13.40;;;9.30;99.90;;;;;;5029819;28;20461;-76
2021/12/29 00:10:23;;;;;;;22.90;15.63;;;9.30;99.90;;;;;;5028680;28;20487;-78
2021/12/29 00:12:52;;;;;;;20.10;14.90;;;9.30;99.90;;;;;;5024977;28;20474;-76
2021/12/29 00:15:24;;;;;;;17.60;15.70;;;9.30;99.90;;;;;;5022270;28;20456;-75
2021/12/29 00:17:55;;;;;;;18.80;16.00;;;9.30;99.90;;;;;;5035093;28;20462;-74
2021/12/29 00:20:27;;;;;;;19.83;16.67;;;9.30;99.90;;;;;;5021317;28;20461;-77
2021/12/29 00:22:58;;;;;;;18.83;16.50;;;9.30;99.90;;;;;;5022500;28;20478;-76
2021/12/29 00:25:25;;;;;;;16.60;14.90;;;9.20;99.90;;;;;;5024886;28;20453;-77
2021/12/29 00:27:54;;;;;;;20.43;18.23;;;9.20;99.90;;;;;;5019764;28;20452;-77
2021/12/29 00:30:23;;;;;;;21.83;18.00;;;9.30;99.90;;;;;;5022502;28;20560;-76
2021/12/29 00:32:50;;;;;;;21.30;19.10;;;9.20;99.90;;;;;;5026257;28;20464;-76
2021/12/29 00:35:18;;;;;;;23.40;20.93;;;9.20;99.90;;;;;;5019755;28;20798;-77
2021/12/29 00:37:45;;;;;;;25.30;20.47;;;9.20;99.90;;;;;;5027105;28;20465;-77
2021/12/29 00:40:13;;;;;;;21.60;19.30;;;9.20;99.90;;;;;;5026701;28;20735;-75
2021/12/29 00:42:40;;;;;;;22.60;19.40;;;9.20;99.90;;;;;;5024178;28;20821;-76
2021/12/29 00:45:08;;;;;;;22.30;19.90;;;9.20;99.90;;;;;;5021837;28;20446;-76
2021/12/29 00:47:38;;;;;;;28.77;21.20;;;9.20;99.90;;;;;;5021516;28;20441;-76
2021/12/29 00:50:07;;;;;;;23.03;20.63;;;9.20;99.90;;;;;;5023212;28;20551;-77
2021/12/29 00:52:34;;;;;;;23.80;21.33;;;9.20;99.90;;;;;;5023307;28;21128;-77
2021/12/29 00:55:01;;;;;;;24.20;21.80;;;9.20;99.90;;;;;;5039791;28;20460;-76
2021/12/29 00:57:28;;;;;;;23.60;20.73;;;9.20;99.90;;;;;;5038891;28;20457;-77
2021/12/29 00:59:55;;;;;;;24.17;21.57;;;9.20;99.90;;;;;;5030744;28;20833;-76
2021/12/29 01:02:22;;;;;;;26.50;22.60;;;9.20;99.90;;;;;;5042447;28;20474;-77
2021/12/29 01:04:50;;;;;;;24.27;20.20;;;9.20;99.90;;;;;;5029288;28;20473;-77
2021/12/29 01:07:18;;;;;;;23.67;20.10;;;9.20;99.90;;;;;;5037942;28;20454;-76
2021/12/29 01:09:45;;;;;;;24.30;19.40;;;9.20;99.90;;;;;;5050892;28;20491;-80
2021/12/29 01:12:12;;;;;;;22.60;20.20;;;9.20;99.90;;;;;;5049941;28;20513;-76
2021/12/29 01:14:43;;;;;;;21.23;18.93;;;9.20;99.90;;;;;;5050669;28;20483;-78
2021/12/29 01:17:09;;;;;;;22.93;19.40;;;9.20;99.90;;;;;;5040494;28;20484;-76
2021/12/29 01:19:36;;;;;;;22.17;19.77;;;9.20;99.90;;;;;;5033183;28;21036;-79
2021/12/29 01:22:05;;;;;;;19.77;17.67;;;9.20;99.90;;;;;;5032191;28;20459;-79
2021/12/29 01:24:32;;;;;;;22.40;17.93;;;9.20;99.90;;;;;;5038664;28;20480;-79
2021/12/29 01:27:00;;;;;;;21.73;18.63;;;9.20;99.90;;;;;;5023684;28;20445;-79
2021/12/29 01:29:28;;;;;;;22.70;17.40;;;9.20;99.90;;;;;;5044065;28;20460;-79
2021/12/29 01:31:56;;;;;;;25.27;17.30;;;9.20;99.90;;;;;;5013919;28;20454;-77
2021/12/29 01:34:23;;;;;;;21.23;17.83;;;9.20;99.90;;;;;;5033685;28;20900;-79
2021/12/29 01:36:50;;;;;;;15.40;13.80;;;9.20;99.90;;;;;;5032712;28;20988;-78
2021/12/29 01:39:19;;;;;;;16.10;14.40;;;9.20;99.90;;;;;;5036764;28;20457;-77
2021/12/29 01:41:48;;;;;;;17.33;14.73;;;9.20;99.90;;;;;;5056332;28;20447;-77
2021/12/29 01:44:16;;;;;;;15.17;13.63;;;9.20;99.90;;;;;;5039614;28;20485;-77
2021/12/29 01:46:45;;;;;;;17.60;15.80;;;9.20;99.90;;;;;;5036372;28;20552;-79
2021/12/29 01:49:12;;;;;;;15.63;13.20;;;9.20;99.90;;;;;;5037223;28;20988;-79
2021/12/29 01:51:48;;;;;;;17.70;15.27;;;9.10;99.90;;;;;;5036502;28;20500;-78
2021/12/29 01:54:23;;;;;;;18.63;14.60;;;9.10;99.90;;;;;;5037219;28;20511;-79
2021/12/29 01:56:54;;;;;;;13.97;12.47;;;9.20;99.90;;;;;;5036452;28;20464;-78
2021/12/29 01:59:22;;;;;;;14.90;12.93;;;9.10;99.90;;;;;;5044480;28;20457;-79
2021/12/29 02:01:49;;;;;;;21.27;14.97;;;9.10;99.90;;;;;;5036434;28;20461;-79
2021/12/29 02:04:16;;;;;;;23.70;15.20;;;9.10;99.90;;;;;;5053595;28;20472;-79
2021/12/29 02:06:43;;;;;;;17.33;14.27;;;9.10;99.90;;;;;;5047067;28;20460;-79
2021/12/29 02:09:10;;;;;;;17.20;14.60;;;9.10;99.90;;;;;;5052554;28;20455;-78
2021/12/29 02:11:38;;;;;;;20.30;15.30;;;9.10;99.90;;;;;;5056153;28;20495;-77
2021/12/29 02:14:09;;;;;;;17.63;15.30;;;9.10;99.90;;;;;;5040417;28;20568;-78
2021/12/29 02:16:37;;;;;;;19.80;16.67;;;9.20;99.90;;;;;;5037281;28;20445;-79
2021/12/29 02:19:07;;;;;;;19.70;16.53;;;9.10;99.90;;;;;;5038676;28;20479;-79
2021/12/29 02:21:36;;;;;;;17.97;15.83;;;9.10;99.90;;;;;;5037409;28;20450;-79
2021/12/29 02:24:17;;;;;;;15.80;13.93;;;9.10;99.90;;;;;;5039766;28;20483;-79
2021/12/29 02:26:45;;;;;;;18.47;16.43;;;9.20;99.90;;;;;;5037329;28;20464;-79
2021/12/29 02:29:16;;;;;;;16.30;14.60;;;9.20;99.90;;;;;;5037230;28;20945;-79
2021/12/29 02:31:43;;;;;;;17.37;14.83;;;9.20;99.90;;;;;;5037107;28;20481;-79
2021/12/29 02:34:12;;;;;;;17.93;16.03;;;9.20;99.90;;;;;;5056806;28;20494;-80
2021/12/29 02:36:44;;;;;;;17.70;14.60;;;9.20;99.90;;;;;;5058075;28;20448;-80
2021/12/29 02:39:13;;;;;;;24.67;15.23;;;9.10;99.90;;;;;;5038290;28;20544;-80
2021/12/29 02:41:44;;;;;;;16.70;13.23;;;9.10;99.90;;;;;;5053474;28;20444;-79
2021/12/29 02:44:16;;;;;;;18.90;13.87;;;9.20;99.90;;;;;;5055282;28;20480;-80
2021/12/29 02:46:44;;;;;;;16.03;13.40;;;9.20;99.90;;;;;;5057737;28;21027;-80
2021/12/29 02:49:11;;;;;;;13.77;10.90;;;9.20;99.90;;;;;;5040962;28;20452;-79
2021/12/29 02:51:40;;;;;;;14.20;12.00;;;9.20;99.90;;;;;;5036600;28;20564;-79
2021/12/29 02:54:06;;;;;;;11.10;9.37;;;9.20;99.90;;;;;;5033833;28;20477;-79
2021/12/29 02:56:33;;;;;;;11.87;9.50;;;9.20;99.90;;;;;;5028318;28;20549;-79
2021/12/29 02:59:00;;;;;;;15.67;9.50;;;9.20;99.90;;;;;;5036205;28;20825;-79
2021/12/29 03:01:28;;;;;;;10.87;8.10;;;9.20;99.90;;;;;;5054739;28;20459;-79
2021/12/29 03:03:55;;;;;;;12.67;10.10;;;9.20;99.90;;;;;;5042065;28;20477;-79
2021/12/29 03:06:22;;;;;;;13.43;8.37;;;9.20;99.90;;;;;;5036103;28;20454;-78
2021/12/29 03:08:51;;;;;;;14.87;7.77;;;9.20;99.90;;;;;;5037391;28;20806;-79
2021/12/29 03:11:18;;;;;;;12.20;9.30;;;9.20;99.90;;;;;;5043815;28;20485;-80
2021/12/29 03:13:45;;;;;;;12.27;8.90;;;9.20;99.90;;;;;;5056089;28;20481;-80
2021/12/29 03:16:12;;;;;;;11.40;8.70;;;9.10;99.90;;;;;;5049915;28;20453;-79
2021/12/29 03:18:39;;;;;;;13.87;10.27;;;9.20;99.90;;;;;;5036795;28;20453;-80
2021/12/29 03:21:07;;;;;;;16.40;10.60;;;9.20;99.90;;;;;;5041130;28;20456;-80
2021/12/29 03:23:34;;;;;;;14.67;12.00;;;9.20;99.90;;;;;;5047858;28;20461;-79
2021/12/29 03:26:03;;;;;;;18.03;12.67;;;9.20;99.90;;;;;;5039292;28;20444;-80
2021/12/29 03:28:30;;;;;;;20.80;13.70;;;9.10;99.90;;;;;;5048711;28;20508;-80
2021/12/29 03:30:57;;;;;;;15.30;12.47;;;9.20;99.90;;;;;;5049981;28;20488;-79
2021/12/29 03:33:28;;;;;;;16.67;13.60;;;9.20;99.90;;;;;;5051942;28;20996;-79
2021/12/29 03:35:59;;;;;;;16.90;12.33;;;9.20;99.90;;;;;;5056427;28;20892;-79
2021/12/29 03:38:27;;;;;;;19.23;12.57;;;9.20;99.90;;;;;;5054778;28;20453;-80
2021/12/29 03:40:55;;;;;;;19.67;13.57;;;9.20;99.90;;;;;;5056107;28;20831;-80
2021/12/29 03:43:25;;;;;;;15.13;12.30;;;9.20;99.90;;;;;;5046991;28;20471;-79
2021/12/29 03:45:52;;;;;;;18.30;14.17;;;9.20;99.90;;;;;;5037413;28;20453;-80
2021/12/29 03:48:20;;;;;;;16.83;11.93;;;9.20;99.90;;;;;;5034680;28;20484;-78
2021/12/29 03:50:48;;;;;;;15.27;12.73;;;9.20;99.90;;;;;;5034582;28;20496;-79
2021/12/29 03:53:16;;;;;;;16.87;13.00;;;9.20;99.90;;;;;;5035643;28;20476;-79
2021/12/29 03:55:43;;;;;;;16.17;13.70;;;9.20;99.90;;;;;;5034940;28;20461;-79
2021/12/29 03:58:11;;;;;;;15.77;12.20;;;9.20;99.90;;;;;;5045080;28;20467;-78
2021/12/29 04:00:39;;;;;;;14.90;11.90;;;9.20;99.90;;;;;;5037418;28;20459;-79
2021/12/29 04:03:06;;;;;;;16.30;12.37;;;9.20;99.90;;;;;;5035192;28;20487;-79
2021/12/29 04:05:34;;;;;;;14.47;12.33;;;9.20;99.90;;;;;;5043219;28;20458;-79
2021/12/29 04:08:02;;;;;;;16.27;13.33;;;9.20;99.90;;;;;;5055209;28;20452;-79
2021/12/29 04:10:29;;;;;;;14.43;12.93;;;9.20;99.90;;;;;;5054563;28;20506;-79
2021/12/29 04:12:56;;;;;;;14.20;11.63;;;9.20;99.90;;;;;;5057074;28;20477;-80
2021/12/29 04:15:24;;;;;;;13.47;12.07;;;9.20;99.90;;;;;;5043117;28;20450;-79
2021/12/29 04:17:58;;;;;;;17.77;13.00;;;9.20;99.90;;;;;;5034896;28;20497;-79
2021/12/29 04:23:11;;;;;;;19.33;15.27;;;9.20;99.90;;;;;;5034694;28;20449;-79
2021/12/29 04:25:38;;;;;;;19.27;14.53;;;9.20;99.90;;;;;;5048645;28;20448;-78
2021/12/29 04:28:09;;;;;;;20.97;16.17;;;9.20;99.90;;;;;;5052475;28;20453;-78
2021/12/29 04:30:37;;;;;;;17.90;15.53;;;9.10;99.90;;;;;;5051815;28;20476;-78
2021/12/29 04:33:05;;;;;;;18.43;14.30;;;9.10;99.90;;;;;;5036933;28;20472;-78
2021/12/29 04:35:32;;;;;;;23.70;15.03;;;9.10;99.90;;;;;;5052645;28;20463;-78
2021/12/29 04:37:59;;;;;;;18.40;14.20;;;9.10;99.90;;;;;;5051750;28;20471;-79
2021/12/29 04:40:26;;;;;;;19.23;14.50;;;9.10;99.90;;;;;;5035860;28;20459;-78
2021/12/29 04:42:53;;;;;;;22.33;15.80;;;9.10;99.90;;;;;;5036929;28;20629;-80
2021/12/29 04:45:20;;;;;;;19.50;15.13;;;9.10;99.90;;;;;;5053302;28;20452;-78
2021/12/29 04:47:49;;;;;;;20.93;16.13;;;9.00;99.90;;;;;;5050858;28;20836;-79
2021/12/29 04:50:26;;;;;;;15.17;13.00;;;9.10;99.90;;;;;;5039176;28;20455;-79
2021/12/29 04:52:55;;;;;;;16.63;14.83;;;9.10;99.90;;;;;;5027296;28;20506;-79
2021/12/29 04:55:22;;;;;;;19.93;14.80;;;9.10;99.90;;;;;;5031451;28;20479;-79
2021/12/29 04:57:51;;;;;;;14.63;11.90;;;9.10;99.90;;;;;;5043736;28;20961;-79
2021/12/29 05:00:21;;;;;;;14.90;12.67;;;9.10;99.90;;;;;;5037263;28;20462;-79
2021/12/29 05:02:47;;;;;;;13.43;11.07;;;9.10;99.90;;;;;;5033819;28;20478;-79
2021/12/29 05:05:23;;;;;;;16.23;12.10;;;9.10;99.90;;;;;;5034146;28;20449;-78
2021/12/29 05:10:36;;;;;;;15.40;9.53;;;9.10;99.90;;;;;;5034190;28;20434;-78
2021/12/29 05:13:04;;;;;;;11.77;9.33;;;9.10;99.90;;;;;;5036383;28;20476;-80
2021/12/29 05:15:31;;;;;;;10.40;7.77;;;9.10;99.90;;;;;;5037751;28;20449;-78
2021/12/29 05:17:59;;;;;;;11.83;7.10;;;9.10;99.90;;;;;;5050668;28;20451;-80
2021/12/29 05:20:27;;;;;;;13.53;7.10;;;9.00;99.90;;;;;;5038436;28;20449;-78
2021/12/29 05:22:55;;;;;;;11.73;7.07;;;8.90;99.90;;;;;;5043264;28;20465;-80
2021/12/29 05:25:22;;;;;;;9.60;6.33;;;8.90;99.90;;;;;;5040633;28;20962;-79
2021/12/29 05:27:49;;;;;;;10.90;6.00;;;9.00;99.90;;;;;;5036070;28;20456;-78
2021/12/29 05:30:16;;;;;;;10.53;6.17;;;9.00;99.90;;;;;;5034575;28;20452;-78
2021/12/29 05:32:43;;;;;;;9.03;6.83;;;9.00;99.90;;;;;;5037234;28;20496;-79
2021/12/29 05:35:11;;;;;;;9.70;5.33;;;9.00;99.90;;;;;;5036489;28;20797;-80
2021/12/29 05:37:38;;;;;;;7.53;6.10;;;9.10;99.90;;;;;;5037343;28;20460;-79
2021/12/29 05:40:08;;;;;;;13.17;6.70;;;9.10;99.90;;;;;;5037533;28;20449;-80
2021/12/29 05:42:36;;;;;;;10.90;7.63;;;9.10;99.90;;;;;;5039275;28;20955;-79
2021/12/29 05:45:03;;;;;;;7.77;6.33;;;9.00;99.90;;;;;;5040441;28;20459;-79
2021/12/29 05:47:30;;;;;;;8.00;6.50;;;9.10;99.90;;;;;;5037345;28;20449;-80
2021/12/29 05:49:57;;;;;;;9.30;7.23;;;9.00;99.90;;;;;;5036092;28;20459;-79
2021/12/29 05:52:24;;;;;;;11.30;9.27;;;9.00;99.90;;;;;;5042345;28;20587;-79
2021/12/29 05:54:50;;;;;;;10.93;8.70;;;9.00;99.90;;;;;;5043211;28;20475;-80
2021/12/29 05:57:18;;;;;;;26.67;24.20;;;9.00;99.90;;;;;;5044805;28;20452;-79
2021/12/29 05:59:45;;;;;;;16.17;14.47;;;9.00;99.90;;;;;;5042079;28;20462;-80
2021/12/29 06:02:19;;;;;;;13.27;9.77;;;9.10;99.90;;;;;;5057351;28;20456;-80
2021/12/29 06:04:46;;;;;;;13.73;10.70;;;9.10;99.90;;;;;;5055253;28;20467;-80
2021/12/29 06:07:13;;;;;;;18.10;11.10;;;9.00;99.90;;;;;;5047418;28;20454;-79
2021/12/29 06:09:40;;;;;;;15.97;10.87;;;9.00;99.90;;;;;;5039589;28;20493;-79
2021/12/29 06:12:08;;;;;;;12.23;10.60;;;9.10;99.90;;;;;;5057320;28;21041;-80
2021/12/29 06:14:36;;;;;;;14.67;10.80;;;9.10;99.90;;;;;;5049338;28;20474;-79
2021/12/29 06:17:03;;;;;;;13.30;11.10;;;9.10;99.90;;;;;;5037647;28;20990;-82
2021/12/29 06:19:31;;;;;;;14.77;12.00;;;9.10;99.90;;;;;;5044520;28;20463;-79
2021/12/29 06:21:58;;;;;;;16.20;12.97;;;9.00;99.90;;;;;;5059459;28;20448;-80
2021/12/29 06:24:25;;;;;;;14.37;11.50;;;9.00;99.90;;;;;;5056828;28;20843;-79
2021/12/29 06:26:51;;;;;;;14.70;12.00;;;9.00;99.90;;;;;;5039529;28;20445;-80
2021/12/29 06:29:18;;;;;;;19.90;13.80;;;9.00;99.90;;;;;;5042614;28;20448;-80
2021/12/29 06:31:48;;;;;;;13.50;11.10;;;9.00;99.90;;;;;;5052000;28;21040;-81
2021/12/29 06:34:15;;;;;;;19.70;12.07;;;9.00;99.90;;;;;;5041897;28;20468;-79
2021/12/29 06:36:41;;;;;;;13.73;10.30;;;9.10;99.90;;;;;;5041479;28;20968;-80
2021/12/29 06:39:08;;;;;;;13.40;9.50;;;9.10;99.90;;;;;;5038396;28;20457;-80
2021/12/29 06:41:35;;;;;;;12.90;10.37;;;9.10;99.90;;;;;;5037010;28;20445;-79
2021/12/29 06:44:02;;;;;;;8.50;6.80;;;9.10;99.90;;;;;;5058928;28;20475;-79
2021/12/29 06:46:29;;;;;;;5.13;4.63;;;9.20;99.90;;;;;;5058344;28;20462;-81
2021/12/29 06:48:57;;;;;;;10.70;7.67;;;9.40;99.90;;;;;;5047953;28;20462;-81
2021/12/29 06:51:31;;;;;;;11.90;7.83;;;9.40;99.90;;;;;;5036670;28;20481;-82
2021/12/29 06:53:57;;;;;;;12.77;8.93;;;9.30;99.90;;;;;;5049041;28;20472;-81
2021/12/29 06:56:24;;;;;;;11.43;8.77;;;9.20;99.90;;;;;;5057141;28;20851;-82
2021/12/29 06:58:51;;;;;;;12.10;9.23;;;9.20;99.90;;;;;;5046544;28;20454;-81
2021/12/29 07:01:18;;;;;;;13.70;8.90;;;9.20;99.90;;;;;;5036945;28;20452;-82
2021/12/29 07:03:45;;;;;;;10.80;8.40;;;9.20;99.90;;;;;;5046828;28;20567;-81
2021/12/29 07:06:13;;;;;;;9.40;6.93;;;9.20;99.90;;;;;;5052254;28;20462;-81
2021/12/29 07:08:40;;;;;;;10.20;7.63;;;9.20;99.90;;;;;;5057269;28;20437;-81
2021/12/29 07:11:07;;;;;;;11.63;9.33;;;9.20;99.90;;;;;;5055139;28;20452;-81
2021/12/29 07:13:34;;;;;;;10.33;8.27;;;9.20;99.90;;;;;;5056067;28;20480;-81
2021/12/29 07:16:01;;;;;;;13.80;9.60;;;9.20;99.90;;;;;;5047763;28;20475;-80
2021/12/29 07:18:27;;;;;;;15.00;9.97;;;9.20;99.90;;;;;;5053146;28;20449;-80
2021/12/29 07:20:54;;;;;;;12.13;8.90;;;9.20;99.90;;;;;;5044651;28;20457;-81
2021/12/29 07:23:22;;;;;;;16.47;11.33;;;9.20;99.90;;;;;;5034509;28;20466;-80
2021/12/29 07:25:49;;;;;;;12.40;9.93;;;9.20;99.90;;;;;;5034617;28;20449;-80
2021/12/29 07:28:16;;;;;;;11.80;10.23;;;9.20;99.90;;;;;;5035109;28;20463;-81
2021/12/29 07:30:43;;;;;;;13.47;12.07;;;9.30;99.90;;;;;;5034614;28;20448;-80
2021/12/29 07:33:10;;;;;;;14.07;10.77;;;9.30;99.90;;;;;;5035245;28;20494;-80
2021/12/29 07:35:37;;;;;;;14.83;12.37;;;9.30;99.90;;;;;;5034433;28;20451;-81
2021/12/29 07:38:03;;;;;;;16.97;13.07;;;9.30;99.90;;;;;;5035882;28;20454;-80
2021/12/29 07:40:34;;;;;;;18.23;12.17;;;9.30;99.90;;;;;;5035665;28;20450;-80
2021/12/29 07:43:02;;;;;;;16.13;13.03;;;9.40;99.90;;;;;;5036440;28;20850;-81
2021/12/29 07:45:30;;;;;;;20.60;15.70;;;9.30;99.90;;;;;;5036629;28;20455;-81
2021/12/29 07:47:57;;;;;;;15.13;12.67;;;9.30;99.90;;;;;;5035693;28;20976;-81
2021/12/29 07:50:24;;;;;;;19.83;14.30;;;9.30;99.90;;;;;;5036302;28;20544;-82
2021/12/29 07:52:50;;;;;;;16.17;12.70;;;9.30;99.90;;;;;;5036444;28;22791;-81
2021/12/29 07:55:18;;;;;;;21.50;13.40;;;9.30;99.90;;;;;;5034897;28;20454;-81
2021/12/29 07:57:47;;;;;;;16.90;14.10;;;9.30;99.90;;;;;;5035696;28;20511;-81
2021/12/29 08:00:16;;;;;;;19.50;14.60;;;9.20;99.90;;;;;;5036070;28;20439;-80
2021/12/29 08:02:44;;;;;;;23.07;14.50;;;9.30;99.90;;;;;;5034769;28;20480;-81
2021/12/29 08:05:12;;;;;;;18.60;13.90;;;9.20;99.90;;;;;;5035835;28;20461;-82
2021/12/29 08:07:39;;;;;;;23.20;16.40;;;9.20;99.90;;;;;;5035231;28;20487;-80
2021/12/29 08:10:09;;;;;;;22.10;17.30;;;9.20;99.90;;;;;;5035361;28;20531;-83
2021/12/29 08:12:36;;;;;;;28.53;25.90;;;9.20;99.90;;;;;;5036028;28;20480;-82
2021/12/29 08:15:05;;;;;;;21.63;15.97;;;9.20;99.90;;;;;;5035001;28;20450;-81
2021/12/29 08:17:32;;;;;;;21.33;14.23;;;9.30;99.90;;;;;;5037792;28;20459;-81
2021/12/29 08:20:03;;;;;;;21.83;16.87;;;9.30;99.90;;;;;;5034244;28;20453;-81
2021/12/29 08:22:30;;;;;;;19.93;16.50;;;9.20;99.90;;;;;;5035418;28;20445;-82
2021/12/29 08:24:57;;;;;;;20.70;16.33;;;9.20;99.90;;;;;;5035450;28;20456;-81
2021/12/29 08:27:24;;;;;;;24.30;18.47;;;9.30;99.90;;;;;;5035523;28;21056;-81
2021/12/29 08:29:51;;;;;;;23.27;17.57;;;9.30;99.90;;;;;;5035646;28;20464;-81
2021/12/29 08:32:20;;;;;;;22.27;15.93;;;9.30;99.90;;;;;;5035015;28;20522;-81
2021/12/29 08:34:47;;;;;;;21.83;17.07;;;9.30;99.90;;;;;;5035166;28;20476;-82
2021/12/29 08:37:14;;;;;;;27.93;18.00;;;9.30;99.90;;;;;;5035573;28;20455;-81
2021/12/29 08:39:40;;;;;;;23.03;17.50;;;9.30;99.90;;;;;;5035049;28;20454;-82
2021/12/29 08:42:07;;;;;;;22.37;17.80;;;9.30;99.90;;;;;;5035241;28;20451;-81
2021/12/29 08:44:34;;;;;;;23.37;17.40;;;9.30;99.90;;;;;;5035647;28;20475;-81
2021/12/29 08:47:01;;;;;;;24.93;19.50;;;9.30;99.90;;;;;;5036577;28;20448;-81
2021/12/29 08:49:29;;;;;;;20.93;16.80;;;9.30;99.90;;;;;;5040029;28;20457;-81
2021/12/29 08:51:56;;;;;;;28.67;20.67;;;9.30;99.90;;;;;;5039059;28;20487;-81
2021/12/29 08:54:24;;;;;;;26.47;17.40;;;9.30;99.90;;;;;;5039443;28;20484;-82
2021/12/29 08:56:53;;;;;;;28.73;19.63;;;9.30;99.90;;;;;;5039752;28;20453;-80
2021/12/29 08:59:20;;;;;;;27.33;20.20;;;9.30;99.90;;;;;;5039249;28;20453;-82
2021/12/29 09:01:47;;;;;;;25.00;18.20;;;9.30;99.90;;;;;;5043662;28;20491;-81
2021/12/29 09:04:14;;;;;;;25.30;18.90;;;9.30;99.90;;;;;;5058851;28;20485;-81
2021/12/29 09:06:42;;;;;;;26.47;19.13;;;9.40;99.90;;;;;;5055630;28;20470;-81
2021/12/29 09:09:09;;;;;;;21.70;17.73;;;9.40;99.90;;;;;;5039125;28;20454;-81
2021/12/29 09:11:36;;;;;;;26.73;18.37;;;9.50;99.90;;;;;;5039184;28;20434;-81
2021/12/29 09:14:03;;;;;;;24.60;19.20;;;9.50;99.90;;;;;;5035661;28;20896;-82
2021/12/29 09:16:30;;;;;;;23.90;20.17;;;9.50;99.90;;;;;;5038874;28;20462;-82
2021/12/29 09:18:57;;;;;;;23.27;18.63;;;9.50;99.90;;;;;;5032382;28;20464;-82
2021/12/29 09:21:26;;;;;;;24.83;19.47;;;9.50;99.90;;;;;;5029501;28;20445;-82
2021/12/29 09:23:54;;;;;;;24.10;18.37;;;9.60;99.90;;;;;;5032279;28;20466;-81
2021/12/29 09:26:21;;;;;;;24.80;18.93;;;9.60;99.90;;;;;;5034534;28;20457;-82
2021/12/29 09:28:49;;;;;;;26.90;20.57;;;9.70;99.90;;;;;;5035389;28;21154;-82
2021/12/29 09:31:18;;;;;;;24.37;18.40;;;9.70;99.90;;;;;;5035713;28;20463;-79
2021/12/29 09:33:45;;;;;;;28.10;19.90;;;9.60;99.90;;;;;;5031973;28;20498;-80
2021/12/29 09:36:12;;;;;;;29.77;21.70;;;9.60;99.90;;;;;;5027616;28;20450;-81
2021/12/29 09:38:40;;;;;;;28.77;20.80;;;9.60;99.90;;;;;;5030825;28;20459;-80
2021/12/29 09:41:10;;;;;;;27.90;20.97;;;9.60;99.90;;;;;;5028454;28;20989;-81
2021/12/29 09:43:38;;;;;;;27.10;21.50;;;9.60;99.90;;;;;;5033564;28;20469;-80
2021/12/29 09:46:06;;;;;;;26.10;20.33;;;9.60;99.90;;;;;;5037683;28;20552;-80
2021/12/29 09:48:33;;;;;;;25.27;19.93;;;9.60;99.90;;;;;;5037354;28;20490;-80
2021/12/29 09:51:00;;;;;;;26.47;20.30;;;9.60;99.90;;;;;;5037478;28;20460;-81
2021/12/29 09:53:27;;;;;;;24.70;21.00;;;9.60;99.90;;;;;;5037620;28;20484;-79
2021/12/29 09:55:54;;;;;;;21.27;18.63;;;9.60;99.90;;;;;;5038422;28;20456;-81
2021/12/29 09:58:22;;;;;;;29.90;22.67;;;9.70;99.90;;;;;;5036124;28;20456;-81
2021/12/29 10:00:51;;;;;;;25.83;19.10;;;9.70;99.90;;;;;;5037143;28;20448;-80
2021/12/29 10:03:20;;;;;;;23.17;19.77;;;9.70;99.90;;;;;;5043604;28;20500;-83
2021/12/29 10:05:50;;;;;;;24.20;20.23;;;9.80;99.90;;;;;;5038992;28;20453;-79
2021/12/29 10:08:20;;;;;;;27.80;21.70;;;9.90;99.90;;;;;;5036018;28;20452;-78
2021/12/29 10:10:49;;;;;;;23.00;20.17;;;9.90;99.90;;;;;;5034337;28;20832;-79
2021/12/29 10:13:17;;;;;;;26.23;19.70;;;10.00;99.90;;;;;;5035124;28;20522;-80
2021/12/29 10:15:47;;;;;;;38.10;19.57;;;10.00;99.90;;;;;;5036250;28;20541;-80
2021/12/29 10:18:17;;;;;;;31.43;19.07;;;10.10;99.90;;;;;;5037472;28;20464;-80
2021/12/29 10:20:49;;;;;;;22.63;19.60;;;10.20;99.90;;;;;;5036710;28;20461;-81
2021/12/29 10:23:19;;;;;;;23.93;20.60;;;10.20;99.90;;;;;;5036882;28;20475;-80
2021/12/29 10:25:46;;;;;;;26.07;18.57;;;10.20;99.90;;;;;;5038384;28;20449;-81
2021/12/29 10:28:22;;;;;;;25.60;19.43;;;10.30;99.90;;;;;;5039097;28;20514;-82
2021/12/29 10:30:58;;;;;;;22.90;18.60;;;10.30;99.90;;;;;;5037507;28;20460;-79
2021/12/29 10:33:25;;;;;;;25.30;18.53;;;10.50;99.90;;;;;;5036496;28;20496;-80
2021/12/29 10:35:52;;;;;;;21.40;15.73;;;10.70;99.90;;;;;;5033545;28;20452;-80
2021/12/29 10:38:21;;;;;;;19.40;16.13;;;10.60;99.90;;;;;;5027598;28;20447;-80
2021/12/29 10:40:49;;;;;;;19.13;14.27;;;10.70;99.90;;;;;;5028648;28;20968;-81
2021/12/29 10:43:17;;;;;;;21.90;16.87;;;10.60;99.90;;;;;;5035236;28;20482;-81
2021/12/29 10:45:46;;;;;;;17.80;13.20;;;10.70;99.90;;;;;;5031386;28;20455;-81
2021/12/29 10:48:24;;;;;;;16.20;13.23;;;10.80;99.90;;;;;;5029974;28;20454;-81
2021/12/29 10:51:01;;;;;;;17.50;13.73;;;10.80;99.90;;;;;;5020011;28;20455;-80
2021/12/29 10:53:28;;;;;;;18.87;13.10;;;10.70;99.90;;;;;;5016996;28;20506;-79
2021/12/29 10:55:54;;;;;;;14.17;10.97;;;10.90;99.90;;;;;;5017301;28;20459;-80
2021/12/29 10:58:24;;;;;;;18.83;12.50;;;10.90;99.90;;;;;;5035656;28;20447;-79
2021/12/29 11:00:59;;;;;;;15.47;11.00;;;11.00;99.90;;;;;;5036144;28;20451;-80
2021/12/29 11:03:28;;;;;;;14.10;10.53;;;11.00;99.90;;;;;;5027741;28;20806;-80
2021/12/29 11:05:59;;;;;;;13.00;10.93;;;10.80;99.90;;;;;;5025540;28;20447;-81
2021/12/29 11:08:27;;;;;;;11.87;9.33;;;10.90;99.90;;;;;;5037356;28;20452;-80
2021/12/29 11:10:56;;;;;;;14.90;10.83;;;11.10;99.90;;;;;;5033840;28;20450;-81
2021/12/29 11:13:27;;;;;;;13.90;10.20;;;11.10;99.90;;;;;;5031236;28;20486;-81
2021/12/29 11:15:56;;;;;;;11.90;8.73;;;10.90;99.90;;;;;;5026072;28;20802;-80
2021/12/29 11:18:23;;;;;;;9.93;8.20;;;10.90;99.90;;;;;;5036863;28;20446;-82
2021/12/29 11:20:56;;;;;;;10.83;8.43;;;11.10;99.90;;;;;;5035043;28;20466;-79
2021/12/29 11:23:24;;;;;;;12.00;8.00;;;11.00;99.90;;;;;;5022514;28;20493;-83
2021/12/29 11:25:53;;;;;;;9.83;7.87;;;10.90;99.90;;;;;;5035745;28;20925;-80
2021/12/29 11:28:22;;;;;;;11.47;8.00;;;10.90;99.90;;;;;;5034376;28;20455;-81
2021/12/29 11:30:50;;;;;;;12.10;7.57;;;10.80;99.90;;;;;;5034418;28;20453;-81
2021/12/29 11:33:16;;;;;;;8.73;7.20;;;10.80;99.90;;;;;;5035456;28;20501;-80
2021/12/29 11:35:47;;;;;;;11.07;6.73;;;10.70;99.90;;;;;;5035678;28;20462;-83
2021/12/29 11:38:16;;;;;;;10.70;6.27;;;10.50;99.90;;;;;;5035086;28;20541;-81
2021/12/29 11:40:47;;;;;;;7.97;6.30;;;10.50;99.90;;;;;;5036482;28;20461;-81
2021/12/29 11:43:14;;;;;;;11.87;7.40;;;10.50;99.90;;;;;;5036168;28;20481;-80
2021/12/29 11:45:42;;;;;;;7.50;6.27;;;10.70;99.90;;;;;;5036609;28;20456;-81
2021/12/29 11:48:10;;;;;;;11.37;6.57;;;10.90;99.90;;;;;;5036421;28;20447;-81
2021/12/29 11:50:39;;;;;;;8.57;6.07;;;11.00;99.90;;;;;;5036056;28;20498;-81
2021/12/29 11:53:14;;;;;;;7.57;5.30;;;11.20;99.90;;;;;;5036092;28;21119;-80
2021/12/29 11:55:46;;;;;;;8.00;6.30;;;11.40;99.90;;;;;;5036360;28;20947;-79
2021/12/29 11:58:14;;;;;;;7.93;5.87;;;11.50;99.90;;;;;;5035470;28;20495;-81
2021/12/29 12:00:42;;;;;;;9.10;6.13;;;11.50;99.90;;;;;;5035886;28;20525;-81
2021/12/29 12:03:12;;;;;;;9.53;6.90;;;11.50;99.90;;;;;;5034448;28;20479;-79
2021/12/29 12:05:42;;;;;;;7.40;6.43;;;11.40;99.90;;;;;;5034047;28;20935;-80
2021/12/29 12:08:12;;;;;;;6.93;6.23;;;11.30;99.90;;;;;;5033149;28;20468;-79
2021/12/29 12:10:41;;;;;;;7.90;6.20;;;11.40;99.90;;;;;;5034396;28;20529;-82
2021/12/29 12:13:23;;;;;;;8.50;6.50;;;11.40;99.90;;;;;;5035411;28;20482;-82
2021/12/29 12:15:50;;;;;;;6.77;5.57;;;11.20;99.90;;;;;;5034326;28;20963;-79
2021/12/29 12:18:18;;;;;;;7.13;6.30;;;11.20;99.90;;;;;;5036184;28;20837;-79
2021/12/29 12:20:47;;;;;;;11.47;6.93;;;11.20;99.90;;;;;;5029381;28;20447;-78
2021/12/29 12:23:32;;;;;;;12.53;7.90;;;11.30;99.90;;;;;;5027472;28;20836;-78
2021/12/29 12:26:09;;;;;;;13.60;7.43;;;11.00;99.90;;;;;;5026756;28;20450;-80
2021/12/29 12:28:45;;;;;;;8.97;6.37;;;11.00;99.90;;;;;;5028761;28;21060;-79
2021/12/29 12:31:25;;;;;;;10.50;6.70;;;11.10;99.90;;;;;;5033398;28;20444;-80
2021/12/29 12:33:52;;;;;;;7.87;6.23;;;11.20;99.90;;;;;;5032526;28;20499;-80
2021/12/29 12:36:20;;;;;;;9.53;6.90;;;11.10;99.90;;;;;;5019496;28;20458;-80
2021/12/29 12:38:48;;;;;;;11.40;7.00;;;11.00;99.90;;;;;;5019822;28;20462;-80
2021/12/29 12:41:16;;;;;;;7.57;6.17;;;10.90;99.90;;;;;;5016335;28;20513;-80
2021/12/29 12:43:57;;;;;;;7.50;6.70;;;10.70;99.90;;;;;;5022299;28;21009;-77
2021/12/29 12:46:28;;;;;;;11.10;6.77;;;10.70;99.90;;;;;;5033917;28;20959;-78
2021/12/29 12:48:55;;;;;;;7.43;6.00;;;10.70;99.90;;;;;;5031157;28;20448;-77